sensor_id;sensor_type;location;lat;lon;timestamp;pressure;altitude;pressure_sealevel;temperature;humidity
21944;BME280;11136;48.778;9.126;2024-02-21T00:01:16;98515.28;;;8.31;63.35
21944;BME280;11136;48.778;9.126;2024-02-21T00:03:42;98442.97;;;8.07;63.33
21944;BME280;11136;48.778;9.126;2024-02-21T00:06:07;98423.38;;;7.86;63.38
21944;BME280;11136;48.778;9.126;2024-02-21T00:08:32;98350.06;;;7.44;63.38
21944;BME280;11136;48.778;9.126;2024-02-21T00:10:58;98393.78;;;7.80;63.28
21944;BME280;11136;48.778;9.126;2024-02-21T00:13:23;98397.25;;;7.79;63.40
21944;BME280;11136;48.778;9.126;2024-02-21T00:15:49;98373.81;;;7.46;63.94
21944;BME280;11136;48.778;9.126;2024-02-21T00:18:15;98422.31;;;7.70;63.66
21944;BME280;11136;48.778;9.126;2024-02-21T00:20:40;98295.94;;;7.14;63.90
21944;BME280;11136;48.778;9.126;2024-02-21T00:23:05;98306.03;;;7.17;63.72
21944;BME280;11136;48.778;9.126;2024-02-21T00:25:31;98410.41;;;7.90;63.71
21944;BME280;11136;48.778;9.126;2024-02-21T00:27:56;98363.94;;;7.37;64.10
21944;BME280;11136;48.778;9.126;2024-02-21T00:30:21;98401.72;;;7.96;63.96
21944;BME280;11136;48.778;9.126;2024-02-21T00:32:47;98402.22;;;8.04;63.71
21944;BME280;11136;48.778;9.126;2024-02-21T00:35:13;98365.91;;;7.76;64.01
21944;BME280;11136;48.778;9.126;2024-02-21T00:37:39;98449.63;;;8.33;64.51
21944;BME280;11136;48.778;9.126;2024-02-21T00:40:04;98380.44;;;7.74;63.68
21944;BME280;11136;48.778;9.126;2024-02-21T00:42:30;98447.19;;;8.30;64.46
21944;BME280;11136;48.778;9.126;2024-02-21T00:44:55;98440.34;;;8.30;64.28
21944;BME280;11136;48.778;9.126;2024-02-21T00:47:20;98409.00;;;8.05;64.10
21944;BME280;11136;48.778;9.126;2024-02-21T00:49:46;98279.56;;;7.20;64.39
21944;BME280;11136;48.778;9.126;2024-02-21T00:52:11;98442.00;;;8.32;63.81
21944;BME280;11136;48.778;9.126;2024-02-21T00:54:37;98431.78;;;8.32;63.82
21944;BME280;11136;48.778;9.126;2024-02-21T00:57:02;98292.06;;;7.49;63.56
21944;BME280;11136;48.778;9.126;2024-02-21T00:59:28;98441.25;;;8.29;63.73
21944;BME280;11136;48.778;9.126;2024-02-21T01:01:53;98204.06;;;6.94;63.89
21944;BME280;11136;48.778;9.126;2024-02-21T01:04:18;98352.25;;;7.77;63.81
21944;BME280;11136;48.778;9.126;2024-02-21T01:06:44;98322.00;;;7.44;63.88
21944;BME280;11136;48.778;9.126;2024-02-21T01:09:10;98418.38;;;8.26;63.63
21944;BME280;11136;48.778;9.126;2024-02-21T01:11:36;98248.06;;;7.21;63.89
21944;BME280;11136;48.778;9.126;2024-02-21T01:14:01;98334.25;;;7.80;63.41
21944;BME280;11136;48.778;9.126;2024-02-21T01:16:26;98347.72;;;8.05;63.52
21944;BME280;11136;48.778;9.126;2024-02-21T01:18:51;98403.38;;;8.41;63.81
21944;BME280;11136;48.778;9.126;2024-02-21T01:21:17;98362.03;;;8.29;63.04
21944;BME280;11136;48.778;9.126;2024-02-21T01:23:42;98245.81;;;7.57;63.38
21944;BME280;11136;48.778;9.126;2024-02-21T01:26:08;98338.53;;;8.21;63.39
21944;BME280;11136;48.778;9.126;2024-02-21T01:28:34;98204.84;;;7.18;63.38
21944;BME280;11136;48.778;9.126;2024-02-21T01:31:00;98185.75;;;7.28;63.19
21944;BME280;11136;48.778;9.126;2024-02-21T01:33:26;97968.16;;;6.01;62.98
21944;BME280;11136;48.778;9.126;2024-02-21T01:35:52;98378.88;;;8.55;62.44
21944;BME280;11136;48.778;9.126;2024-02-21T01:38:17;98339.31;;;8.23;62.85
21944;BME280;11136;48.778;9.126;2024-02-21T01:40:43;98327.94;;;8.30;62.40
21944;BME280;11136;48.778;9.126;2024-02-21T01:43:19;98348.88;;;8.40;62.81
21944;BME280;11136;48.778;9.126;2024-02-21T01:45:48;98354.81;;;8.61;62.55
21944;BME280;11136;48.778;9.126;2024-02-21T01:48:14;97998.84;;;6.41;62.98
21944;BME280;11136;48.778;9.126;2024-02-21T01:50:39;98350.84;;;8.54;62.61
21944;BME280;11136;48.778;9.126;2024-02-21T01:53:05;98340.06;;;8.47;62.82
21944;BME280;11136;48.778;9.126;2024-02-21T01:55:32;98342.53;;;8.49;63.06
21944;BME280;11136;48.778;9.126;2024-02-21T01:57:57;98214.19;;;7.61;62.43
21944;BME280;11136;48.778;9.126;2024-02-21T02:00:23;97988.22;;;6.30;62.55
21944;BME280;11136;48.778;9.126;2024-02-21T02:02:48;97918.53;;;5.91;62.57
21944;BME280;11136;48.778;9.126;2024-02-21T02:05:15;98086.66;;;6.97;63.04
21944;BME280;11136;48.778;9.126;2024-02-21T02:07:42;98263.56;;;8.22;62.29
21944;BME280;11136;48.778;9.126;2024-02-21T02:10:08;98325.16;;;8.57;62.67
21944;BME280;11136;48.778;9.126;2024-02-21T02:12:35;98342.03;;;8.61;62.38
21944;BME280;11136;48.778;9.126;2024-02-21T02:15:02;98116.19;;;7.45;62.39
21944;BME280;11136;48.778;9.126;2024-02-21T02:17:30;98249.75;;;8.26;62.39
21944;BME280;11136;48.778;9.126;2024-02-21T02:19:55;98312.88;;;8.65;62.15
21944;BME280;11136;48.778;9.126;2024-02-21T02:22:22;98145.22;;;7.62;62.28
21944;BME280;11136;48.778;9.126;2024-02-21T02:24:50;98084.22;;;7.36;62.40
21944;BME280;11136;48.778;9.126;2024-02-21T02:27:16;98131.00;;;7.57;62.56
21944;BME280;11136;48.778;9.126;2024-02-21T02:29:41;98288.22;;;8.64;62.26
21944;BME280;11136;48.778;9.126;2024-02-21T02:32:07;98119.06;;;7.57;62.01
21944;BME280;11136;48.778;9.126;2024-02-21T02:34:32;98288.28;;;8.63;62.54
21944;BME280;11136;48.778;9.126;2024-02-21T02:36:57;98180.88;;;7.84;62.16
21944;BME280;11136;48.778;9.126;2024-02-21T02:39:22;98212.97;;;8.10;61.66
21944;BME280;11136;48.778;9.126;2024-02-21T02:41:48;98274.47;;;8.67;61.95
21944;BME280;11136;48.778;9.126;2024-02-21T02:44:14;98094.44;;;7.56;62.21
21944;BME280;11136;48.778;9.126;2024-02-21T02:46:42;97955.25;;;6.69;61.52
21944;BME280;11136;48.778;9.126;2024-02-21T02:49:08;98246.44;;;8.45;61.96
21944;BME280;11136;48.778;9.126;2024-02-21T02:51:33;98207.09;;;8.28;61.24
21944;BME280;11136;48.778;9.126;2024-02-21T02:53:58;98041.13;;;7.30;61.43
21944;BME280;11136;48.778;9.126;2024-02-21T02:56:24;98247.84;;;8.52;61.67
21944;BME280;11136;48.778;9.126;2024-02-21T02:58:49;98134.31;;;7.79;62.04
21944;BME280;11136;48.778;9.126;2024-02-21T03:01:15;98130.72;;;7.83;61.96
21944;BME280;11136;48.778;9.126;2024-02-21T03:03:40;98187.81;;;8.21;62.26
21944;BME280;11136;48.778;9.126;2024-02-21T03:06:05;97947.19;;;6.60;62.55
21944;BME280;11136;48.778;9.126;2024-02-21T03:08:31;97839.25;;;6.00;62.47
21944;BME280;11136;48.778;9.126;2024-02-21T03:10:58;98240.59;;;8.43;62.91
21944;BME280;11136;48.778;9.126;2024-02-21T03:13:25;98002.97;;;6.66;62.92
21944;BME280;11136;48.778;9.126;2024-02-21T03:15:50;98199.97;;;8.16;62.84
21944;BME280;11136;48.778;9.126;2024-02-21T03:18:16;98129.41;;;7.75;62.81
21944;BME280;11136;48.778;9.126;2024-02-21T03:20:41;98177.63;;;8.01;62.97
21944;BME280;11136;48.778;9.126;2024-02-21T03:23:07;98271.13;;;8.46;63.51
21944;BME280;11136;48.778;9.126;2024-02-21T03:25:32;98247.22;;;8.47;63.26
21944;BME280;11136;48.778;9.126;2024-02-21T03:27:57;98121.63;;;7.57;63.31
21944;BME280;11136;48.778;9.126;2024-02-21T03:30:22;98059.53;;;7.16;63.71
21944;BME280;11136;48.778;9.126;2024-02-21T03:32:48;98230.97;;;8.27;63.94
21944;BME280;11136;48.778;9.126;2024-02-21T03:35:14;98086.97;;;7.31;63.96
21944;BME280;11136;48.778;9.126;2024-02-21T03:37:39;98075.19;;;7.29;64.05
21944;BME280;11136;48.778;9.126;2024-02-21T03:40:08;98002.25;;;6.84;63.76
21944;BME280;11136;48.778;9.126;2024-02-21T03:42:34;98236.22;;;8.24;63.99
21944;BME280;11136;48.778;9.126;2024-02-21T03:44:59;98212.19;;;8.28;63.71
21944;BME280;11136;48.778;9.126;2024-02-21T03:47:25;98216.28;;;8.33;63.73
21944;BME280;11136;48.778;9.126;2024-02-21T03:49:50;98189.50;;;8.02;63.69
21944;BME280;11136;48.778;9.126;2024-02-21T03:52:15;98222.19;;;8.35;63.68
21944;BME280;11136;48.778;9.126;2024-02-21T03:54:41;98192.16;;;8.19;63.84
21944;BME280;11136;48.778;9.126;2024-02-21T03:57:07;98047.75;;;7.34;63.45
21944;BME280;11136;48.778;9.126;2024-02-21T03:59:32;98041.50;;;7.21;63.45
21944;BME280;11136;48.778;9.126;2024-02-21T04:01:57;98054.13;;;7.44;63.41
21944;BME280;11136;48.778;9.126;2024-02-21T04:04:24;98210.53;;;8.27;63.90
21944;BME280;11136;48.778;9.126;2024-02-21T04:06:50;97880.41;;;6.31;63.57
21944;BME280;11136;48.778;9.126;2024-02-21T04:09:16;98196.19;;;8.25;63.52
21944;BME280;11136;48.778;9.126;2024-02-21T04:11:42;98046.16;;;7.31;63.60
21944;BME280;11136;48.778;9.126;2024-02-21T04:14:08;98180.66;;;8.29;63.23
21944;BME280;11136;48.778;9.126;2024-02-21T04:16:34;97979.53;;;6.98;63.29
21944;BME280;11136;48.778;9.126;2024-02-21T04:18:59;98041.50;;;7.21;63.30
21944;BME280;11136;48.778;9.126;2024-02-21T04:21:25;98160.56;;;8.22;63.09
21944;BME280;11136;48.778;9.126;2024-02-21T04:23:50;98043.91;;;7.44;63.05
21944;BME280;11136;48.778;9.126;2024-02-21T04:26:15;97958.25;;;6.99;63.51
21944;BME280;11136;48.778;9.126;2024-02-21T04:28:41;98108.09;;;7.55;63.13
21944;BME280;11136;48.778;9.126;2024-02-21T04:31:06;98150.72;;;7.94;63.12
21944;BME280;11136;48.778;9.126;2024-02-21T04:33:32;98051.34;;;7.30;63.20
21944;BME280;11136;48.778;9.126;2024-02-21T04:35:57;98073.63;;;7.45;63.46
21944;BME280;11136;48.778;9.126;2024-02-21T04:38:23;98069.06;;;7.53;62.92
21944;BME280;11136;48.778;9.126;2024-02-21T04:40:49;98159.22;;;8.13;62.74
21944;BME280;11136;48.778;9.126;2024-02-21T04:43:14;98102.78;;;7.80;62.97
21944;BME280;11136;48.778;9.126;2024-02-21T04:45:39;97491.03;;;3.14;62.18
21944;BME280;11136;48.778;9.126;2024-02-21T04:48:05;98066.81;;;7.46;62.74
21944;BME280;11136;48.778;9.126;2024-02-21T04:50:30;97897.47;;;6.50;62.75
21944;BME280;11136;48.778;9.126;2024-02-21T04:52:55;98108.09;;;7.76;63.51
21944;BME280;11136;48.778;9.126;2024-02-21T04:55:21;97991.66;;;6.93;63.25
21944;BME280;11136;48.778;9.126;2024-02-21T04:57:46;97879.56;;;6.31;63.29
21944;BME280;11136;48.778;9.126;2024-02-21T05:00:12;97994.97;;;6.95;63.15
21944;BME280;11136;48.778;9.126;2024-02-21T05:02:37;98042.16;;;7.05;62.92
21944;BME280;11136;48.778;9.126;2024-02-21T05:05:03;98109.69;;;7.37;63.26
21944;BME280;11136;48.778;9.126;2024-02-21T05:07:28;97945.13;;;6.48;63.02
21944;BME280;11136;48.778;9.126;2024-02-21T05:09:54;98230.53;;;7.77;62.40
21944;BME280;11136;48.778;9.126;2024-02-21T05:12:19;97991.00;;;6.68;62.80
21944;BME280;11136;48.778;9.126;2024-02-21T05:14:45;98100.16;;;7.21;62.46
21944;BME280;11136;48.778;9.126;2024-02-21T05:17:10;98128.88;;;7.46;62.79
21944;BME280;11136;48.778;9.126;2024-02-21T05:19:35;97978.81;;;6.54;62.47
21944;BME280;11136;48.778;9.126;2024-02-21T05:22:01;98094.53;;;7.13;62.52
21944;BME280;11136;48.778;9.126;2024-02-21T05:24:26;98112.03;;;7.42;62.53
21944;BME280;11136;48.778;9.126;2024-02-21T05:26:51;98129.06;;;7.62;62.54
21944;BME280;11136;48.778;9.126;2024-02-21T05:29:17;97916.44;;;6.22;62.30
21944;BME280;11136;48.778;9.126;2024-02-21T05:31:54;97906.31;;;6.21;62.61
21944;BME280;11136;48.778;9.126;2024-02-21T05:34:22;98062.03;;;7.18;62.58
21944;BME280;11136;48.778;9.126;2024-02-21T05:36:47;98024.09;;;7.10;62.15
21944;BME280;11136;48.778;9.126;2024-02-21T05:39:15;98025.19;;;7.04;62.47
21944;BME280;11136;48.778;9.126;2024-02-21T05:41:40;97954.28;;;6.52;62.82
21944;BME280;11136;48.778;9.126;2024-02-21T05:44:05;97993.34;;;6.72;62.00
21944;BME280;11136;48.778;9.126;2024-02-21T05:46:31;98110.44;;;7.60;62.05
21944;BME280;11136;48.778;9.126;2024-02-21T05:48:57;98021.63;;;7.09;62.09
21944;BME280;11136;48.778;9.126;2024-02-21T05:51:22;97801.16;;;5.76;61.69
21944;BME280;11136;48.778;9.126;2024-02-21T05:53:47;97962.81;;;6.51;61.62
21944;BME280;11136;48.778;9.126;2024-02-21T05:56:13;98096.44;;;7.68;61.42
21944;BME280;11136;48.778;9.126;2024-02-21T05:58:40;98109.22;;;7.68;61.81
21944;BME280;11136;48.778;9.126;2024-02-21T06:01:05;98036.03;;;7.30;61.23
21944;BME280;11136;48.778;9.126;2024-02-21T06:03:32;97963.00;;;6.88;61.62
21944;BME280;11136;48.778;9.126;2024-02-21T06:05:59;97958.84;;;6.86;61.23
21944;BME280;11136;48.778;9.126;2024-02-21T06:08:24;98102.91;;;7.77;62.05
21944;BME280;11136;48.778;9.126;2024-02-21T06:10:50;98048.25;;;7.22;61.30
21944;BME280;11136;48.778;9.126;2024-02-21T06:13:19;98038.38;;;6.94;61.93
21944;BME280;11136;48.778;9.126;2024-02-21T06:15:46;98028.50;;;7.06;62.33
21944;BME280;11136;48.778;9.126;2024-02-21T06:18:11;97617.03;;;4.76;61.89
21944;BME280;11136;48.778;9.126;2024-02-21T06:20:37;98094.03;;;7.65;62.06
21944;BME280;11136;48.778;9.126;2024-02-21T06:23:05;98008.25;;;7.03;61.83
21944;BME280;11136;48.778;9.126;2024-02-21T06:25:30;97969.31;;;6.80;61.92
21944;BME280;11136;48.778;9.126;2024-02-21T06:27:56;97878.09;;;6.25;61.96
21944;BME280;11136;48.778;9.126;2024-02-21T06:30:21;98105.13;;;7.64;62.19
21944;BME280;11136;48.778;9.126;2024-02-21T06:32:46;97969.25;;;6.81;61.74
21944;BME280;11136;48.778;9.126;2024-02-21T06:35:11;97940.53;;;6.56;61.64
21944;BME280;11136;48.778;9.126;2024-02-21T06:37:37;97924.34;;;6.36;62.33
21944;BME280;11136;48.778;9.126;2024-02-21T06:40:03;97874.88;;;6.00;62.51
21944;BME280;11136;48.778;9.126;2024-02-21T06:42:29;98115.34;;;7.44;62.20
21944;BME280;11136;48.778;9.126;2024-02-21T06:44:54;98109.13;;;7.51;62.14
21944;BME280;11136;48.778;9.126;2024-02-21T06:47:21;97922.03;;;6.30;62.32
21944;BME280;11136;48.778;9.126;2024-02-21T06:49:50;98107.13;;;7.37;62.47
21944;BME280;11136;48.778;9.126;2024-02-21T06:52:19;98114.06;;;7.34;62.46
21944;BME280;11136;48.778;9.126;2024-02-21T06:54:49;98001.19;;;6.68;62.18
21944;BME280;11136;48.778;9.126;2024-02-21T06:57:14;98113.06;;;7.38;62.67
21944;BME280;11136;48.778;9.126;2024-02-21T06:59:42;98109.41;;;7.44;62.49
21944;BME280;11136;48.778;9.126;2024-02-21T07:02:07;98100.16;;;7.41;62.00
21944;BME280;11136;48.778;9.126;2024-02-21T07:04:33;98100.03;;;7.44;62.77
21944;BME280;11136;48.778;9.126;2024-02-21T07:06:59;98118.56;;;7.49;62.19
21944;BME280;11136;48.778;9.126;2024-02-21T07:09:24;98114.97;;;7.53;61.93
21944;BME280;11136;48.778;9.126;2024-02-21T07:11:50;97927.28;;;6.48;61.53
21944;BME280;11136;48.778;9.126;2024-02-21T07:14:15;98094.94;;;7.64;62.30
21944;BME280;11136;48.778;9.126;2024-02-21T07:16:41;98121.22;;;7.66;62.08
21944;BME280;11136;48.778;9.126;2024-02-21T07:19:07;98107.47;;;7.71;61.66
21944;BME280;11136;48.778;9.126;2024-02-21T07:21:32;98086.13;;;7.72;61.64
21944;BME280;11136;48.778;9.126;2024-02-21T07:23:57;98077.09;;;7.83;61.18
21944;BME280;11136;48.778;9.126;2024-02-21T07:26:23;97721.59;;;5.73;61.37
21944;BME280;11136;48.778;9.126;2024-02-21T07:28:48;98075.09;;;7.90;61.53
21944;BME280;11136;48.778;9.126;2024-02-21T07:31:13;97778.94;;;6.02;60.76
21944;BME280;11136;48.778;9.126;2024-02-21T07:33:39;97835.09;;;6.60;61.06
21944;BME280;11136;48.778;9.126;2024-02-21T07:36:09;98070.63;;;7.76;61.12
21944;BME280;11136;48.778;9.126;2024-02-21T07:38:35;97874.25;;;6.96;60.69
21944;BME280;11136;48.778;9.126;2024-02-21T07:41:00;97761.47;;;6.33;60.79
21944;BME280;11136;48.778;9.126;2024-02-21T07:43:25;97977.16;;;7.74;60.14
21944;BME280;11136;48.778;9.126;2024-02-21T07:45:51;98052.06;;;8.29;59.50
21944;BME280;11136;48.778;9.126;2024-02-21T07:48:18;98027.56;;;8.06;59.11
21944;BME280;11136;48.778;9.126;2024-02-21T07:50:50;98059.22;;;8.41;59.09
21944;BME280;11136;48.778;9.126;2024-02-21T07:53:16;97875.69;;;7.41;58.74
21944;BME280;11136;48.778;9.126;2024-02-21T07:55:41;97973.09;;;8.24;59.22
21944;BME280;11136;48.778;9.126;2024-02-21T07:58:06;97838.22;;;7.60;58.99
21944;BME280;11136;48.778;9.126;2024-02-21T08:00:32;97831.53;;;7.58;58.66
21944;BME280;11136;48.778;9.126;2024-02-21T08:02:58;97847.13;;;7.88;58.46
21944;BME280;11136;48.778;9.126;2024-02-21T08:05:23;97896.41;;;8.26;58.62
21944;BME280;11136;48.778;9.126;2024-02-21T08:07:49;98051.44;;;9.15;57.96
21944;BME280;11136;48.778;9.126;2024-02-21T08:10:14;97923.72;;;8.43;57.79
21944;BME280;11136;48.778;9.126;2024-02-21T08:12:39;97859.84;;;8.07;57.62
21944;BME280;11136;48.778;9.126;2024-02-21T08:15:05;97932.09;;;8.64;57.61
21944;BME280;11136;48.778;9.126;2024-02-21T08:17:31;97953.03;;;8.87;57.53
21944;BME280;11136;48.778;9.126;2024-02-21T08:19:57;97983.53;;;9.25;58.05
21944;BME280;11136;48.778;9.126;2024-02-21T08:22:22;97991.59;;;9.35;57.54
21944;BME280;11136;48.778;9.126;2024-02-21T08:24:47;97941.50;;;9.13;57.34
21944;BME280;11136;48.778;9.126;2024-02-21T08:27:13;98028.88;;;9.89;56.97
21944;BME280;11136;48.778;9.126;2024-02-21T08:29:38;97992.31;;;9.70;57.13
21944;BME280;11136;48.778;9.126;2024-02-21T08:32:03;97949.00;;;9.49;56.35
21944;BME280;11136;48.778;9.126;2024-02-21T08:34:29;97912.97;;;9.21;56.04
21944;BME280;11136;48.778;9.126;2024-02-21T08:36:55;97874.16;;;9.13;55.42
21944;BME280;11136;48.778;9.126;2024-02-21T08:39:21;97899.53;;;9.33;55.46
21944;BME280;11136;48.778;9.126;2024-02-21T08:41:46;98004.44;;;9.99;55.18
21944;BME280;11136;48.778;9.126;2024-02-21T08:44:11;98002.78;;;9.98;55.58
21944;BME280;11136;48.778;9.126;2024-02-21T08:46:37;97986.81;;;9.77;55.53
21944;BME280;11136;48.778;9.126;2024-02-21T08:49:05;97886.75;;;9.33;55.29
21944;BME280;11136;48.778;9.126;2024-02-21T08:51:31;97977.63;;;9.89;55.49
21944;BME280;11136;48.778;9.126;2024-02-21T08:53:56;97964.91;;;9.88;54.41
21944;BME280;11136;48.778;9.126;2024-02-21T08:56:21;97991.59;;;10.15;54.57
21944;BME280;11136;48.778;9.126;2024-02-21T08:58:47;97943.25;;;9.93;54.93
21944;BME280;11136;48.778;9.126;2024-02-21T09:01:12;97850.59;;;9.39;54.66
21944;BME280;11136;48.778;9.126;2024-02-21T09:03:38;97961.44;;;10.04;54.83
21944;BME280;11136;48.778;9.126;2024-02-21T09:06:04;97981.28;;;10.32;54.53
21944;BME280;11136;48.778;9.126;2024-02-21T09:08:30;97852.56;;;9.66;54.78
21944;BME280;11136;48.778;9.126;2024-02-21T09:10:56;97979.97;;;10.41;54.42
21944;BME280;11136;48.778;9.126;2024-02-21T09:13:21;97778.63;;;9.14;54.62
21944;BME280;11136;48.778;9.126;2024-02-21T09:15:47;97972.50;;;10.52;54.13
21944;BME280;11136;48.778;9.126;2024-02-21T09:18:13;97932.84;;;10.28;54.15
21944;BME280;11136;48.778;9.126;2024-02-21T09:20:39;97764.66;;;9.35;54.51
21944;BME280;11136;48.778;9.126;2024-02-21T09:23:04;97879.94;;;10.11;54.44
21944;BME280;11136;48.778;9.126;2024-02-21T09:25:29;97916.28;;;10.49;54.15
21944;BME280;11136;48.778;9.126;2024-02-21T09:27:55;97917.38;;;10.59;54.15
21944;BME280;11136;48.778;9.126;2024-02-21T09:30:21;97916.88;;;10.68;54.21
21944;BME280;11136;48.778;9.126;2024-02-21T09:32:46;97860.09;;;10.30;53.47
21944;BME280;11136;48.778;9.126;2024-02-21T09:35:12;97926.91;;;10.87;53.20
21944;BME280;11136;48.778;9.126;2024-02-21T09:37:38;97932.88;;;10.88;53.07
21944;BME280;11136;48.778;9.126;2024-02-21T09:40:04;97921.50;;;10.92;52.61
21944;BME280;11136;48.778;9.126;2024-02-21T09:42:40;97895.31;;;10.87;52.37
21944;BME280;11136;48.778;9.126;2024-02-21T09:45:22;97906.59;;;11.13;51.86
21944;BME280;11136;48.778;9.126;2024-02-21T09:50:36;97896.59;;;11.22;51.86
21944;BME280;11136;48.778;9.126;2024-02-21T09:53:04;97798.91;;;10.68;51.72
21944;BME280;11136;48.778;9.126;2024-02-21T09:55:33;97907.59;;;11.39;51.36
21944;BME280;11136;48.778;9.126;2024-02-21T09:58:01;97869.66;;;11.15;51.51
21944;BME280;11136;48.778;9.126;2024-02-21T10:00:26;97851.66;;;11.29;50.83
21944;BME280;11136;48.778;9.126;2024-02-21T10:02:53;97928.94;;;11.82;49.73
21944;BME280;11136;48.778;9.126;2024-02-21T10:05:19;97920.41;;;11.81;49.11
21944;BME280;11136;48.778;9.126;2024-02-21T10:07:44;97867.63;;;11.34;49.34
21944;BME280;11136;48.778;9.126;2024-02-21T10:10:10;97767.19;;;10.98;49.07
21944;BME280;11136;48.778;9.126;2024-02-21T10:12:36;97875.25;;;11.77;49.12
21944;BME280;11136;48.778;9.126;2024-02-21T10:15:03;97918.66;;;12.09;47.99
21944;BME280;11136;48.778;9.126;2024-02-21T10:17:28;97837.06;;;11.71;48.47
21944;BME280;11136;48.778;9.126;2024-02-21T10:19:54;97869.00;;;12.08;47.73
21944;BME280;11136;48.778;9.126;2024-02-21T10:22:19;97914.00;;;12.28;47.32
21944;BME280;11136;48.778;9.126;2024-02-21T10:24:46;97887.91;;;12.34;47.69
21944;BME280;11136;48.778;9.126;2024-02-21T10:27:11;97771.00;;;11.73;47.49
21944;BME280;11136;48.778;9.126;2024-02-21T10:29:37;97879.72;;;12.54;48.00
21944;BME280;11136;48.778;9.126;2024-02-21T10:32:07;97881.34;;;12.55;46.94
21944;BME280;11136;48.778;9.126;2024-02-21T10:34:33;97872.63;;;12.58;46.65
21944;BME280;11136;48.778;9.126;2024-02-21T10:37:03;97801.41;;;11.93;46.67
21944;BME280;11136;48.778;9.126;2024-02-21T10:39:30;97876.00;;;12.58;47.01
21944;BME280;11136;48.778;9.126;2024-02-21T10:42:00;97872.19;;;12.51;46.45
21944;BME280;11136;48.778;9.126;2024-02-21T10:44:28;97844.09;;;12.36;46.60
21944;BME280;11136;48.778;9.126;2024-02-21T10:46:55;97871.13;;;12.41;45.90
21944;BME280;11136;48.778;9.126;2024-02-21T10:49:23;97864.34;;;12.40;46.60
21944;BME280;11136;48.778;9.126;2024-02-21T10:54:56;97850.78;;;12.38;46.14
21944;BME280;11136;48.778;9.126;2024-02-21T10:57:24;97755.06;;;11.82;46.38
21944;BME280;11136;48.778;9.126;2024-02-21T10:59:50;97583.09;;;10.74;45.96
21944;BME280;11136;48.778;9.126;2024-02-21T11:02:16;97834.34;;;12.53;45.68
21944;BME280;11136;48.778;9.126;2024-02-21T11:04:42;97830.41;;;12.61;45.63
21944;BME280;11136;48.778;9.126;2024-02-21T11:07:08;97830.53;;;12.72;45.79
21944;BME280;11136;48.778;9.126;2024-02-21T11:09:37;97554.47;;;11.08;45.98
21944;BME280;11136;48.778;9.126;2024-02-21T11:12:05;97816.34;;;12.92;45.52
21944;BME280;11136;48.778;9.126;2024-02-21T11:14:31;97812.91;;;13.04;45.06
21944;BME280;11136;48.778;9.126;2024-02-21T11:16:58;97610.88;;;12.00;44.64
21944;BME280;11136;48.778;9.126;2024-02-21T11:19:27;97512.03;;;11.54;44.11
21944;BME280;11136;48.778;9.126;2024-02-21T11:21:54;97560.91;;;11.91;43.49
21944;BME280;11136;48.778;9.126;2024-02-21T11:24:30;97702.94;;;12.69;42.25
21944;BME280;11136;48.778;9.126;2024-02-21T11:27:09;97732.94;;;12.94;42.01
21944;BME280;11136;48.778;9.126;2024-02-21T11:29:48;97779.00;;;13.23;42.76
21944;BME280;11136;48.778;9.126;2024-02-21T11:32:17;97768.75;;;13.34;42.74
21944;BME280;11136;48.778;9.126;2024-02-21T11:35:04;97645.28;;;12.72;42.47
21944;BME280;11136;48.778;9.126;2024-02-21T11:37:31;97756.09;;;13.43;41.89
21944;BME280;11136;48.778;9.126;2024-02-21T11:40:00;97749.16;;;13.44;41.65
21944;BME280;11136;48.778;9.126;2024-02-21T11:42:26;97631.50;;;12.73;41.66
21944;BME280;11136;48.778;9.126;2024-02-21T11:44:53;97759.50;;;13.55;41.47
21944;BME280;11136;48.778;9.126;2024-02-21T11:47:20;97703.19;;;13.27;40.57
21944;BME280;11136;48.778;9.126;2024-02-21T11:49:46;97739.13;;;13.52;40.08
21944;BME280;11136;48.778;9.126;2024-02-21T11:52:14;97741.72;;;13.52;40.75
21944;BME280;11136;48.778;9.126;2024-02-21T11:54:41;97696.06;;;13.30;41.10
21944;BME280;11136;48.778;9.126;2024-02-21T11:57:06;97731.41;;;13.52;41.00
21944;BME280;11136;48.778;9.126;2024-02-21T11:59:33;97736.56;;;13.52;40.84
21944;BME280;11136;48.778;9.126;2024-02-21T12:02:00;97681.16;;;13.23;39.83
21944;BME280;11136;48.778;9.126;2024-02-21T12:04:28;97704.00;;;13.51;40.31
21944;BME280;11136;48.778;9.126;2024-02-21T12:06:57;97626.88;;;12.89;40.38
21944;BME280;11136;48.778;9.126;2024-02-21T12:09:23;97703.81;;;13.65;40.61
21944;BME280;11136;48.778;9.126;2024-02-21T12:12:00;97703.97;;;13.75;40.85
21944;BME280;11136;48.778;9.126;2024-02-21T12:14:27;97692.41;;;13.81;40.82
21944;BME280;11136;48.778;9.126;2024-02-21T12:16:53;97572.00;;;13.12;40.59
21944;BME280;11136;48.778;9.126;2024-02-21T12:19:19;97691.72;;;13.90;40.54
21944;BME280;11136;48.778;9.126;2024-02-21T12:21:45;97454.38;;;12.55;40.82
21944;BME280;11136;48.778;9.126;2024-02-21T12:24:24;97598.97;;;13.55;39.82
21944;BME280;11136;48.778;9.126;2024-02-21T12:26:53;97665.63;;;14.05;39.59
21944;BME280;11136;48.778;9.126;2024-02-21T12:29:21;97623.94;;;13.76;39.37
21944;BME280;11136;48.778;9.126;2024-02-21T12:31:48;97356.34;;;12.01;39.56
21944;BME280;11136;48.778;9.126;2024-02-21T12:34:15;97656.09;;;13.95;38.94
21944;BME280;11136;48.778;9.126;2024-02-21T12:36:42;97278.00;;;11.59;39.18
21944;BME280;11136;48.778;9.126;2024-02-21T12:39:09;97592.28;;;13.41;39.30
21944;BME280;11136;48.778;9.126;2024-02-21T12:41:35;97467.34;;;12.89;39.34
21944;BME280;11136;48.778;9.126;2024-02-21T12:44:06;97625.38;;;14.03;39.35
21944;BME280;11136;48.778;9.126;2024-02-21T12:46:33;97387.88;;;12.62;39.88
21944;BME280;11136;48.778;9.126;2024-02-21T12:48:58;97636.19;;;14.08;38.98
21944;BME280;11136;48.778;9.126;2024-02-21T12:51:23;97454.03;;;13.06;39.15
21944;BME280;11136;48.778;9.126;2024-02-21T12:53:49;97513.38;;;13.40;39.63
21944;BME280;11136;48.778;9.126;2024-02-21T12:56:15;97604.78;;;14.14;38.90
21944;BME280;11136;48.778;9.126;2024-02-21T12:58:40;97604.06;;;14.12;38.65
21944;BME280;11136;48.778;9.126;2024-02-21T13:01:07;97518.19;;;13.67;38.62
21944;BME280;11136;48.778;9.126;2024-02-21T13:03:32;97592.59;;;14.05;39.17
21944;BME280;11136;48.778;9.126;2024-02-21T13:05:58;97498.38;;;13.56;38.46
21944;BME280;11136;48.778;9.126;2024-02-21T13:08:24;97453.16;;;13.30;38.41